Time;durP1;ratioP1;P1;durP2;ratioP2;P2;SDS_P1;SDS_P2;PMS_P1;PMS_P2;Temp;Humidity;BMP_temperature;BMP_pressure;BME280_temperature;BME280_humidity;BME280_pressure;Samples;Min_cycle;Max_cycle;Signal;HPM_P1;HPM_P2
2023/11/14 00:00:13;;;;;;;1.27;1.15;;;;;;;6.33;100.00;100483.66;5029446;28;20107;-77
2023/11/14 00:02:39;;;;;;;1.83;1.77;;;;;;;6.70;100.00;100561.69;5035971;28;20033;-75
2023/11/14 00:05:05;;;;;;;0.40;0.40;;;;;;;6.80;100.00;100576.63;5039856;28;20051;-76
2023/11/14 00:07:33;;;;;;;0.40;0.40;;;;;;;5.84;100.00;100438.44;5029947;28;20037;-76
2023/11/14 00:10:07;;;;;;;0.20;0.20;;;;;;;6.72;100.00;100576.50;5029695;28;20041;-77
2023/11/14 00:12:33;;;;;;;0.30;0.30;;;;;;;6.82;100.00;100574.06;5033574;28;20040;-76
2023/11/14 00:15:10;;;;;;;6.60;1.92;;;;;;;6.21;100.00;100469.56;5029697;28;20033;-78
2023/11/14 00:17:41;;;;;;;2.15;2.05;;;;;;;6.82;100.00;100547.97;5019562;28;20041;-76
2023/11/14 00:20:31;;;;;;;0.40;0.40;;;;;;;7.00;100.00;100573.47;5012165;28;20063;-77
2023/11/14 00:22:58;;;;;;;0.77;0.77;;;;;;;6.85;100.00;100551.50;5019561;28;20409;-76
2023/11/14 00:25:23;;;;;;;1.88;1.83;;;;;;;6.21;100.00;100469.56;5027465;28;20032;-78
2023/11/14 00:27:50;;;;;;;0.38;0.38;;;;;;;6.16;100.00;100464.25;5036397;28;20083;-75
2023/11/14 00:30:16;;;;;;;2.33;2.20;;;;;;;6.87;100.00;100573.28;5028800;28;20113;-78
2023/11/14 00:32:42;;;;;;;0.55;0.55;;;;;;;6.15;100.00;100459.00;5044478;28;20108;-77
2023/11/14 00:35:07;;;;;;;0.30;0.30;;;;;;;6.13;100.00;100452.06;5032859;28;20107;-77
2023/11/14 00:37:33;;;;;;;1.58;1.48;;;;;;;6.83;100.00;100578.41;5039960;28;20094;-79
2023/11/14 00:39:58;;;;;;;1.20;1.20;;;;;;;6.95;100.00;100583.84;5040254;28;20090;-78
2023/11/14 00:42:24;;;;;;;0.50;0.50;;;;;;;6.81;100.00;100538.38;5026365;28;20044;-77
2023/11/14 00:47:35;;;;;;;0.30;0.30;;;;;;;6.09;100.00;100442.41;5027560;28;20068;-76
2023/11/14 00:50:01;;;;;;;1.50;1.42;;;;;;;6.86;100.00;100552.38;5027182;28;20461;-77
2023/11/14 00:52:26;;;;;;;2.60;2.40;;;;;;;6.38;100.00;100465.50;5033815;28;20033;-75
2023/11/14 00:54:53;;;;;;;0.40;0.30;;;;;;;6.18;100.00;100443.44;5023294;28;20386;-75
2023/11/14 00:57:18;;;;;;;0.20;0.20;;;;;;;5.99;100.00;100450.88;5029981;28;20381;-76
2023/11/14 01:03:05;;;;;;;0.30;0.30;;;;;;;6.18;100.00;100485.09;5033224;28;20431;-75
2023/11/14 01:05:31;;;;;;;0.50;0.50;;;;;;;6.05;100.00;100445.81;5052775;28;20021;-76
2023/11/14 01:07:56;;;;;;;1.55;1.45;;;;;;;6.17;100.00;100463.41;5049875;28;20033;-76
2023/11/14 01:10:22;;;;;;;2.30;2.13;;;;;;;6.92;100.00;100576.84;5007558;28;20029;-76
2023/11/14 01:13:00;;;;;;;1.05;1.05;;;;;;;6.94;100.00;100574.25;5017720;28;20041;-75
2023/11/14 01:15:26;;;;;;;0.75;0.52;;;;;;;6.78;100.00;100565.28;5037535;28;20526;-75
2023/11/14 01:17:52;;;;;;;0.98;0.95;;;;;;;6.26;100.00;100480.94;5043767;28;20035;-77
2023/11/14 01:20:18;;;;;;;3.63;3.45;;;;;;;6.82;100.00;100577.53;5046265;28;20041;-76
2023/11/14 01:22:44;;;;;;;3.40;3.13;;;;;;;6.77;100.00;100553.13;5032543;28;20068;-78
2023/11/14 01:25:09;;;;;;;1.52;1.42;;;;;;;6.77;100.00;100555.72;5031700;28;20037;-74
2023/11/14 01:27:36;;;;;;;0.30;0.30;;;;;;;6.68;100.00;100527.75;5024617;28;20036;-77
2023/11/14 01:30:02;;;;;;;0.98;0.95;;;;;;;6.90;100.00;100575.94;5026970;28;20354;-78
2023/11/14 01:32:28;;;;;;;0.30;0.30;;;;;;;6.75;100.00;100571.31;5028547;28;20097;-76
2023/11/14 01:34:53;;;;;;;9.10;8.35;;;;;;;6.45;100.00;100518.63;5027000;28;20041;-77
2023/11/14 01:37:20;;;;;;;0.30;0.30;;;;;;;5.96;100.00;100479.50;5027593;28;20046;-78
2023/11/14 01:39:46;;;;;;;0.50;0.50;;;;;;;6.57;100.00;100549.25;5029788;28;20036;-78
2023/11/14 01:42:11;;;;;;;0.50;0.50;;;;;;;6.22;100.00;100479.97;5010901;28;20022;-77
2023/11/14 01:44:37;;;;;;;0.50;0.50;;;;;;;6.80;100.00;100542.72;5030600;28;20100;-76
2023/11/14 01:47:03;;;;;;;0.57;0.55;;;;;;;6.26;100.00;100434.03;5028203;28;20049;-77
2023/11/14 01:49:36;;;;;;;1.83;1.73;;;;;;;6.89;100.00;100561.16;5030287;28;20053;-78
2023/11/14 01:52:02;;;;;;;1.00;1.00;;;;;;;6.61;100.00;100499.81;5029440;28;20557;-77
2023/11/14 01:54:28;;;;;;;0.63;0.63;;;;;;;6.90;100.00;100533.31;5030911;28;20041;-78
2023/11/14 01:56:58;;;;;;;0.82;0.82;;;;;;;6.21;100.00;100427.88;5031456;28;20037;-78
2023/11/14 01:59:24;;;;;;;0.30;0.30;;;;;;;6.27;100.00;100451.41;5032594;28;20040;-76
2023/11/14 02:01:49;;;;;;;4.30;3.95;;;;;;;6.80;100.00;100547.94;5031578;28;20385;-79
2023/11/14 02:04:20;;;;;;;0.30;0.30;;;;;;;6.34;100.00;100448.06;5013016;28;20473;-79
2023/11/14 02:06:50;;;;;;;1.52;1.48;;;;;;;6.66;100.00;100518.13;5032172;28;20033;-77
2023/11/14 02:09:15;;;;;;;1.52;1.42;;;;;;;6.64;100.00;100512.03;5028156;28;20071;-76
2023/11/14 02:11:45;;;;;;;1.35;1.25;;;;;;;6.46;100.00;100483.88;5039864;28;20022;-77
2023/11/14 02:14:11;;;;;;;0.88;0.88;;;;;;;6.60;100.00;100515.41;5049831;28;20048;-76
2023/11/14 02:16:47;;;;;;;1.27;1.20;;;;;;;6.62;100.00;100518.94;5020742;28;20044;-79
2023/11/14 02:19:15;;;;;;;1.95;1.85;;;;;;;6.66;100.00;100525.97;5041877;28;20083;-76
2023/11/14 02:21:44;;;;;;;2.75;2.65;;;;;;;6.72;100.00;100528.69;5039946;28;20152;-78
2023/11/14 02:24:15;;;;;;;1.00;0.88;;;;;;;6.30;100.00;100469.72;5041912;28;20107;-76
2023/11/14 02:26:45;;;;;;;3.75;3.55;;;;;;;6.51;100.00;100503.13;5044053;28;20025;-76
2023/11/14 02:29:19;;;;;;;0.57;0.57;;;;;;;6.08;100.00;100422.41;5041019;28;20047;-75
2023/11/14 02:32:08;;;;;;;0.30;0.30;;;;;;;6.69;100.00;100506.03;5051372;28;20045;-77
2023/11/14 02:34:35;;;;;;;2.42;2.30;;;;;;;5.89;100.00;100394.25;5050985;28;20041;-78
2023/11/14 02:37:08;;;;;;;0.25;0.25;;;;;;;5.60;100.00;100381.56;5034334;28;20057;-76
2023/11/14 02:39:34;;;;;;;0.40;0.40;;;;;;;6.15;100.00;100475.50;5016361;28;20049;-78
2023/11/14 02:41:59;;;;;;;1.48;1.25;;;;;;;6.49;100.00;100508.28;5032981;28;20017;-77
2023/11/14 02:44:26;;;;;;;1.02;1.02;;;;;;;6.05;100.00;100499.63;5031285;28;21014;-76
2023/11/14 02:46:55;;;;;;;0.63;0.63;;;;;;;5.79;100.00;100418.38;5019350;28;20028;-77
2023/11/14 02:49:34;;;;;;;0.57;0.57;;;;;;;6.37;100.00;100523.72;5043046;28;20029;-77
2023/11/14 02:52:01;;;;;;;0.40;0.40;;;;;;;6.43;100.00;100530.75;5032340;28;20048;-78
2023/11/14 02:54:26;;;;;;;1.10;1.02;;;;;;;5.67;100.00;100404.25;5046110;28;21200;-78
2023/11/14 02:56:53;;;;;;;1.50;1.38;;;;;;;6.19;100.00;100492.09;5043732;28;20076;-80
2023/11/14 02:59:21;;;;;;;1.25;1.23;;;;;;;5.51;100.00;100378.78;5049470;28;20040;-78
2023/11/14 03:01:46;;;;;;;3.40;3.17;;;;;;;6.18;100.00;100485.09;5049891;28;20033;-80
2023/11/14 03:04:12;;;;;;;0.90;0.90;;;;;;;6.42;100.00;100510.78;5022630;28;20053;-79
2023/11/14 03:06:39;;;;;;;1.02;0.70;;;;;;;6.19;100.00;100473.84;5021820;28;20099;-78
2023/11/14 03:09:05;;;;;;;0.20;0.20;;;;;;;6.22;100.00;100499.97;5030299;28;20492;-79
2023/11/14 03:11:32;;;;;;;0.73;0.73;;;;;;;6.36;100.00;100516.72;5030009;28;20033;-80
2023/11/14 03:13:57;;;;;;;0.40;0.40;;;;;;;5.48;100.00;100376.13;5030020;28;20069;-78
2023/11/14 03:16:22;;;;;;;8.68;8.27;;;;;;;5.71;100.00;100403.47;5037972;28;20504;-79
2023/11/14 03:18:48;;;;;;;3.22;1.98;;;;;;;5.98;100.00;100456.09;5034664;28;20025;-79
2023/11/14 03:21:17;;;;;;;0.30;0.30;;;;;;;5.40;100.00;100395.91;5029492;28;20029;-77
2023/11/14 03:23:45;;;;;;;0.75;0.75;;;;;;;6.08;100.00;100515.31;5030179;28;20466;-76
2023/11/14 03:26:11;;;;;;;11.50;9.07;;;;;;;6.00;100.00;100520.38;5035750;28;20072;-79
2023/11/14 03:28:37;;;;;;;0.40;0.40;;;;;;;5.78;100.00;100477.34;5032257;28;20454;-79
2023/11/14 03:31:03;;;;;;;1.67;1.58;;;;;;;5.43;100.00;100440.19;5030550;28;20033;-77
2023/11/14 03:33:28;;;;;;;0.40;0.40;;;;;;;6.08;100.00;100523.13;5035707;28;20038;-78
2023/11/14 03:35:54;;;;;;;1.75;1.65;;;;;;;6.05;100.00;100541.31;5014013;28;20049;-78
2023/11/14 03:38:45;;;;;;;0.30;0.30;;;;;;;6.10;100.00;100517.09;5032214;28;20048;-78
2023/11/14 03:41:11;;;;;;;2.08;1.98;;;;;;;5.74;100.00;100464.28;5030535;28;20159;-77
2023/11/14 03:43:37;;;;;;;0.38;0.38;;;;;;;5.90;100.00;100501.06;5010100;28;20132;-77
2023/11/14 03:46:03;;;;;;;3.00;2.88;;;;;;;5.40;100.00;100388.09;5028164;28;20051;-78
2023/11/14 03:48:29;;;;;;;0.75;0.75;;;;;;;5.39;100.00;100408.03;5028248;28;20120;-77
2023/11/14 03:50:56;;;;;;;0.30;0.30;;;;;;;5.72;100.00;100446.00;5033969;28;20029;-79
2023/11/14 03:53:22;;;;;;;0.82;0.82;;;;;;;5.70;100.00;100437.28;5043338;28;20137;-78
2023/11/14 03:55:48;;;;;;;3.25;3.05;;;;;;;6.05;100.00;100502.25;5035937;28;20455;-76
2023/11/14 03:58:14;;;;;;;0.55;0.55;;;;;;;6.12;100.00;100504.13;5038879;28;20466;-76
2023/11/14 04:00:40;;;;;;;5.57;5.05;;;;;;;5.92;100.00;100470.72;5029690;28;20441;-75
2023/11/14 04:03:05;;;;;;;1.25;1.15;;;;;;;5.92;100.00;100498.47;5006705;28;20060;-77
2023/11/14 04:05:32;;;;;;;0.75;0.75;;;;;;;6.08;100.00;100510.09;5026227;28;20044;-77
2023/11/14 04:07:57;;;;;;;0.75;0.75;;;;;;;5.56;100.00;100423.13;5042840;28;20094;-76
2023/11/14 04:10:23;;;;;;;2.30;2.15;;;;;;;5.58;100.00;100418.81;5025062;28;20032;-77
2023/11/14 04:12:48;;;;;;;0.85;0.85;;;;;;;5.74;100.00;100482.50;5028653;28;20389;-75
2023/11/14 04:15:15;;;;;;;0.85;0.85;;;;;;;5.78;100.00;100492.97;5032632;28;20027;-76
2023/11/14 04:17:40;;;;;;;1.95;1.85;;;;;;;5.84;100.00;100477.50;5035731;28;20472;-75
2023/11/14 04:20:07;;;;;;;0.77;0.77;;;;;;;5.70;100.00;100478.94;5031549;28;20079;-79
2023/11/14 04:22:33;;;;;;;2.58;2.38;;;;;;;5.91;100.00;100522.75;5047931;28;20044;-80
2023/11/14 04:25:08;;;;;;;0.40;0.40;;;;;;;5.96;100.00;100525.50;5034855;28;20500;-79
2023/11/14 04:27:34;;;;;;;1.05;1.05;;;;;;;5.29;100.00;100503.22;5029441;28;20042;-78
2023/11/14 04:30:00;;;;;;;4.25;3.95;;;;;;;4.81;100.00;100404.16;5007196;28;20022;-77
2023/11/14 04:32:25;;;;;;;0.30;0.30;;;;;;;4.95;100.00;100420.94;5028583;28;20475;-78
2023/11/14 04:34:52;;;;;;;0.68;0.68;;;;;;;5.54;100.00;100508.09;5026741;28;20445;-77
2023/11/14 04:37:27;;;;;;;0.73;0.73;;;;;;;4.99;100.00;100427.09;5026776;28;20121;-77
2023/11/14 04:39:53;;;;;;;1.83;1.73;;;;;;;5.44;100.00;100520.03;5027096;28;20038;-77
2023/11/14 04:42:18;;;;;;;0.30;0.30;;;;;;;5.56;100.00;100507.28;5024408;28;20453;-77
2023/11/14 04:44:45;;;;;;;3.10;2.83;;;;;;;4.99;100.00;100393.31;5026205;28;20095;-78
2023/11/14 04:47:10;;;;;;;2.92;2.78;;;;;;;5.44;100.00;100466.25;5007760;28;20316;-76
2023/11/14 04:56:38;;;;;;;4.80;4.53;;;;;;;5.59;100.00;100524.69;5028577;28;20048;-77
2023/11/14 05:02:41;;;;;;;0.22;0.22;;;;;;;5.06;100.00;100427.25;5033108;28;20084;-78
2023/11/14 05:05:06;;;;;;;0.32;0.30;;;;;;;5.73;100.00;100544.06;5030093;28;20064;-78
2023/11/14 05:07:32;;;;;;;1.38;1.27;;;;;;;5.75;100.00;100531.97;5030068;28;20083;-79
2023/11/14 05:09:59;;;;;;;1.35;1.30;;;;;;;5.52;100.00;100487.22;5027931;28;20041;-77
2023/11/14 05:12:56;;;;;;;0.68;0.68;;;;;;;5.78;100.00;100536.34;5044686;28;20034;-78
2023/11/14 05:15:23;;;;;;;0.40;0.40;;;;;;;5.11;100.00;100405.69;5038524;28;20092;-77
2023/11/14 05:17:49;;;;;;;0.60;0.60;;;;;;;5.37;100.00;100438.34;5029433;28;20088;-76
2023/11/14 05:20:15;;;;;;;3.13;3.00;;;;;;;5.89;100.00;100512.31;5034123;28;20072;-78
2023/11/14 05:22:40;;;;;;;0.30;0.30;;;;;;;5.80;100.00;100545.97;5014455;28;20065;-78
2023/11/14 05:25:08;;;;;;;0.40;0.40;;;;;;;5.31;100.00;100447.72;5028512;28;20592;-77
2023/11/14 05:27:35;;;;;;;3.45;2.88;;;;;;;5.96;100.00;100544.59;5027867;28;20033;-77
2023/11/14 05:30:01;;;;;;;0.30;0.30;;;;;;;6.02;100.00;100533.44;5026958;28;20057;-76
2023/11/14 05:32:27;;;;;;;1.40;1.40;;;;;;;6.11;100.00;100542.31;5027471;28;20064;-77
2023/11/14 05:34:52;;;;;;;0.52;0.52;;;;;;;5.93;100.00;100539.31;5027132;28;20045;-77
2023/11/14 05:37:18;;;;;;;1.23;1.15;;;;;;;5.59;100.00;100459.59;5026202;28;20095;-77
2023/11/14 05:39:43;;;;;;;1.85;1.75;;;;;;;5.45;100.00;100426.34;5034213;28;20064;-77
2023/11/14 05:42:09;;;;;;;0.20;0.20;;;;;;;6.12;100.00;100528.44;5028608;28;20366;-78
2023/11/14 05:44:34;;;;;;;0.40;0.40;;;;;;;5.69;100.00;100436.41;5028705;28;20025;-77
2023/11/14 05:47:01;;;;;;;0.40;0.40;;;;;;;5.74;100.00;100426.09;5030277;28;20103;-78
2023/11/14 05:49:27;;;;;;;3.40;3.15;;;;;;;6.41;100.00;100545.47;5033088;28;20041;-78
2023/11/14 05:51:52;;;;;;;1.77;1.65;;;;;;;6.45;100.00;100513.41;5040302;28;20041;-77
2023/11/14 05:54:18;;;;;;;3.42;3.22;;;;;;;6.48;100.00;100539.53;5011170;28;20414;-77
2023/11/14 05:56:49;;;;;;;0.43;0.43;;;;;;;6.04;100.00;100431.03;5028036;28;20017;-77
2023/11/14 05:59:15;;;;;;;1.65;1.55;;;;;;;5.86;100.00;100413.31;5030311;28;20120;-80
2023/11/14 06:01:42;;;;;;;0.98;0.98;;;;;;;6.82;100.00;100546.25;5030647;28;20540;-78
2023/11/14 06:04:07;;;;;;;9.40;7.50;;;;;;;6.48;100.00;100480.44;5031413;28;20048;-77
2023/11/14 06:07:22;;;;;;;0.40;0.40;;;;;;;6.94;100.00;100553.41;5032813;28;20037;-80
2023/11/14 06:09:48;;;;;;;2.70;2.60;;;;;;;6.32;100.00;100424.59;5033196;28;20052;-78
2023/11/14 06:12:13;;;;;;;1.40;1.30;;;;;;;6.38;100.00;100444.66;5033207;28;20370;-77
2023/11/14 06:14:39;;;;;;;5.35;5.10;;;;;;;6.47;100.00;100457.84;5031907;28;20021;-77
2023/11/14 06:17:04;;;;;;;0.52;0.52;;;;;;;6.94;100.00;100532.53;5029287;28;20037;-78
2023/11/14 06:19:30;;;;;;;3.30;3.10;;;;;;;6.09;100.00;100408.56;5027438;28;20132;-79
2023/11/14 06:21:57;;;;;;;0.30;0.30;;;;;;;7.10;100.00;100542.38;5028253;28;20037;-78
2023/11/14 06:24:24;;;;;;;0.50;0.50;;;;;;;6.57;100.00;100406.75;5038040;28;20464;-80
2023/11/14 06:26:49;;;;;;;0.40;0.40;;;;;;;6.79;100.00;100415.81;5040770;28;20021;-80
2023/11/14 06:29:16;;;;;;;2.50;2.35;;;;;;;7.21;100.00;100498.19;5041724;28;20037;-79
2023/11/14 06:32:17;;;;;;;1.13;1.13;;;;;;;7.25;100.00;100523.44;5038360;28;20080;-80
2023/11/14 06:35:16;;;;;;;15.95;15.13;;;;;;;7.48;100.00;100510.75;5031255;28;20103;-79
2023/11/14 06:37:44;;;;;;;0.30;0.30;;;;;;;7.37;100.00;100479.28;5040436;28;20045;-79
2023/11/14 06:40:10;;;;;;;5.15;4.70;;;;;;;7.63;100.00;100491.78;5030927;28;20037;-81
2023/11/14 06:42:37;;;;;;;1.08;1.08;;;;;;;7.57;100.00;100479.53;5016608;28;20029;-81
2023/11/14 06:48:24;;;;;;;5.65;5.35;;;;;;;7.91;100.00;100476.47;5037276;28;20467;-78
2023/11/14 06:50:49;;;;;;;0.32;0.32;;;;;;;7.65;100.00;100424.78;5054271;28;20021;-77
2023/11/14 06:53:15;;;;;;;0.40;0.40;;;;;;;7.86;100.00;100442.44;5053619;28;20480;-79
2023/11/14 06:55:40;;;;;;;0.30;0.30;;;;;;;7.39;100.00;100364.44;5053647;28;20179;-80
2023/11/14 07:01:28;;;;;;;1.15;0.82;;;;;;;8.15;100.00;100474.13;5037702;28;20075;-84
2023/11/14 07:04:30;;;;;;;1.40;1.17;;;;;;;8.32;100.00;100476.06;5034654;28;20034;-84
2023/11/14 07:06:59;;;;;;;1.75;1.05;;;;;;;8.23;100.00;100448.06;5025829;28;20822;-84
2023/11/14 07:09:26;;;;;;;1.77;1.67;;;;;;;8.40;100.00;100464.81;5027031;28;20060;-84
2023/11/14 07:11:54;;;;;;;11.05;10.38;;;;;;;8.37;100.00;100461.28;5016294;28;20024;-86
2023/11/14 07:14:37;;;;;;;0.82;0.82;;;;;;;8.54;100.00;100482.38;5014576;28;20132;-84
2023/11/14 07:17:03;;;;;;;1.63;1.52;;;;;;;8.16;100.00;100401.84;5044597;28;20428;-84
2023/11/14 07:19:54;;;;;;;2.75;2.60;;;;;;;8.61;100.00;100474.59;5019774;28;20045;-83
2023/11/14 07:22:57;;;;;;;2.25;1.50;;;;;;;8.20;100.00;100383.56;5028781;28;20049;-83
2023/11/14 07:25:34;;;;;;;1.17;1.15;;;;;;;8.00;100.00;100372.91;4983442;28;20495;-83
2023/11/14 07:28:35;;;;;;;0.40;0.40;;;;;;;8.36;100.00;100483.94;4978151;28;20041;-84
2023/11/14 07:31:26;;;;;;;0.95;0.95;;;;;;;8.42;100.00;100481.41;4994335;28;20659;-83
2023/11/14 07:34:46;;;;;;;1.52;1.42;;;;;;;8.62;100.00;100458.06;5003083;28;20056;-84
2023/11/14 07:37:27;;;;;;;1.50;1.40;;;;;;;8.52;100.00;100443.16;4985362;28;20034;-82
2023/11/14 07:40:19;;;;;;;1.75;1.38;;;;;;;8.80;100.00;100449.50;4987442;28;20045;-83
2023/11/14 07:46:53;;;;;;;4.75;4.55;;;;;;;8.86;100.00;100449.53;4905584;29;20509;-81
2023/11/14 07:50:02;;;;;;;19.90;2.30;;;;;;;9.17;100.00;100444.50;4900256;28;20084;-81
2023/11/14 07:59:33;;;;;;;0.52;0.52;;;;;;;9.42;100.00;100442.03;4963355;28;20090;-85
2023/11/14 08:02:07;;;;;;;7.15;2.30;;;;;;;9.17;100.00;100359.88;4976858;28;20132;-85
2023/11/14 08:04:58;;;;;;;0.77;0.77;;;;;;;9.61;100.00;100406.31;4975842;28;20085;-84
2023/11/14 08:07:35;;;;;;;6.03;4.15;;;;;;;9.49;100.00;100392.31;4962095;28;20510;-84
2023/11/14 08:10:16;;;;;;;6.00;5.65;;;;;;;9.60;100.00;100422.91;4976428;28;20039;-83
2023/11/14 08:13:03;;;;;;;0.30;0.30;;;;;;;9.74;100.00;100426.47;4957755;28;20038;-81
2023/11/14 08:15:48;;;;;;;1.98;1.38;;;;;;;9.91;100.00;100409.03;4981967;28;20378;-82
2023/11/14 08:18:15;;;;;;;7.15;4.70;;;;;;;9.68;100.00;100419.44;4991712;28;20441;-84
2023/11/14 08:21:09;;;;;;;6.57;5.90;;;;;;;9.54;100.00;100355.66;4984756;28;20064;-82
2023/11/14 08:24:04;;;;;;;2.05;1.85;;;;;;;10.09;100.00;100402.97;4964870;28;20050;-84
2023/11/14 08:26:30;;;;;;;1.75;1.65;;;;;;;10.14;100.00;100402.97;4996282;28;20042;-78
2023/11/14 08:29:00;;;;;;;0.22;0.22;;;;;;;9.92;100.00;100345.25;5003092;28;20136;-80
2023/11/14 08:34:48;;;;;;;25.67;22.02;;;;;;;10.50;100.00;100415.28;5005676;28;20057;-82
2023/11/14 08:37:16;;;;;;;0.95;0.95;;;;;;;10.57;100.00;100422.25;4990219;28;20038;-82
2023/11/14 08:39:45;;;;;;;17.55;16.38;;;;;;;10.43;100.00;100379.41;4992202;28;20062;-85
2023/11/14 08:42:11;;;;;;;2.60;2.40;;;;;;;10.67;100.00;100423.13;5005605;28;20056;-83
2023/11/14 08:44:40;;;;;;;5.25;4.55;;;;;;;10.20;100.00;100336.56;4990726;28;20093;-86
2023/11/14 08:47:32;;;;;;;3.40;2.95;;;;;;;10.77;100.00;100414.41;4986453;28;20161;-84
2023/11/14 08:50:00;;;;;;;0.35;0.35;;;;;;;10.75;100.00;100417.91;4997100;28;20041;-83
2023/11/14 08:52:25;;;;;;;0.45;0.45;;;;;;;10.28;100.00;100308.59;5000679;28;20121;-85
2023/11/14 08:54:52;;;;;;;0.30;0.30;;;;;;;10.64;100.00;100364.53;5020198;28;20052;-85
2023/11/14 08:57:18;;;;;;;0.38;0.38;;;;;;;11.01;100.00;100389.00;5021746;28;20028;-83
2023/11/14 09:00:18;;;;;;;0.20;0.20;;;;;;;11.07;100.00;100386.31;5022546;28;20029;-84
2023/11/14 09:03:27;;;;;;;0.50;0.50;;;;;;;11.32;100.00;100408.16;4991344;28;20048;-81
2023/11/14 09:05:58;;;;;;;5.07;4.88;;;;;;;11.33;100.00;100415.16;5022373;28;20045;-85
2023/11/14 09:12:43;;;;;;;4.47;3.25;;;;;;;11.72;100.00;100401.88;4958795;28;20046;-82
2023/11/14 09:15:35;;;;;;;0.75;0.75;;;;;;;11.78;100.00;100407.09;4925473;29;20074;-82
2023/11/14 09:31:40;;;;;;;1.58;1.38;;;;;;;12.30;100.00;100369.13;4895429;29;20052;-84
2023/11/14 09:34:08;;;;;;;2.65;2.20;;;;;;;12.24;100.00;100348.97;4875503;29;20489;-82
2023/11/14 09:36:34;;;;;;;3.28;2.97;;;;;;;11.93;100.00;100282.59;4860925;29;20045;-83
2023/11/14 09:38:59;;;;;;;5.68;2.67;;;;;;;12.43;100.00;100341.78;4886908;29;21052;-81
2023/11/14 09:41:25;;;;;;;6.00;2.55;;;;;;;12.17;100.00;100257.84;4950505;28;20035;-84
2023/11/14 09:43:53;;;;;;;1.40;1.30;;;;;;;12.75;100.00;100345.91;4964106;28;20042;-84
2023/11/14 09:46:20;;;;;;;3.20;1.92;;;;;;;12.39;100.00;100246.22;4970272;28;20053;-80
2023/11/14 09:48:45;;;;;;;2.80;2.50;;;;;;;12.76;100.00;100277.44;4965508;28;20085;-79
2023/11/14 09:51:45;;;;;;;2.83;1.83;;;;;;;13.15;100.00;100348.09;4984337;28;20034;-79
2023/11/14 09:54:15;;;;;;;3.08;2.88;;;;;;;13.18;100.00;100350.69;4983165;28;20061;-79
2023/11/14 09:56:47;;;;;;;2.78;2.30;;;;;;;12.97;100.00;100286.84;4988806;28;20177;-76
2023/11/14 09:59:13;;;;;;;2.00;1.55;;;;;;;13.34;100.00;100318.00;4999641;28;20395;-80
2023/11/14 10:01:40;;;;;;;1.17;1.05;;;;;;;12.65;100.00;100214.34;5016750;28;20374;-81
2023/11/14 10:04:06;;;;;;;0.68;0.60;;;;;;;13.39;100.00;100312.69;5009251;28;20042;-80
2023/11/14 10:06:34;;;;;;;4.18;2.28;;;;;;;12.87;100.00;100199.16;5010128;28;20382;-81
2023/11/14 10:09:01;;;;;;;1.15;1.08;;;;;;;12.80;100.00;100194.84;5010527;28;20022;-78
2023/11/14 10:11:41;;;;;;;4.00;2.20;;;;;;;13.49;100.00;100295.88;5010661;28;20117;-82
2023/11/14 10:14:06;;;;;;;16.50;3.30;;;;;;;13.50;100.00;100268.59;5007811;28;20045;-80
2023/11/14 10:16:32;;;;;;;1.38;1.27;;;;;;;13.57;100.00;100283.44;5026531;28;20029;-79
2023/11/14 10:18:57;;;;;;;3.03;2.10;;;;;;;13.58;100.00;100271.13;5013297;28;20085;-80
2023/11/14 10:21:34;;;;;;;5.38;3.00;;;;;;;13.30;100.00;100190.72;5014312;28;20180;-80
2023/11/14 10:24:00;;;;;;;3.25;2.58;;;;;;;13.96;100.00;100294.28;5018456;28;20055;-80
2023/11/14 10:26:28;;;;;;;9.32;3.85;;;;;;;13.89;100.00;100263.63;5011209;28;20080;-80
2023/11/14 10:29:01;;;;;;;1.95;1.77;;;;;;;13.82;100.00;100230.34;5014708;28;20128;-80
2023/11/14 10:31:37;;;;;;;1.58;1.50;;;;;;;14.14;100.00;100283.44;5018601;28;20037;-80
2023/11/14 10:34:45;;;;;;;2.92;2.67;;;;;;;14.28;100.00;100264.75;5026478;28;20049;-80
2023/11/14 10:37:35;;;;;;;2.75;2.40;;;;;;;14.09;100.00;100163.94;5019999;28;20049;-81
2023/11/14 10:40:06;;;;;;;1.80;1.70;;;;;;;14.25;100.00;100118.75;5035662;28;20496;-80
2023/11/14 10:42:32;;;;;;;2.47;2.17;;;;;;;14.86;100.00;100191.44;5044923;28;20124;-80
2023/11/14 10:45:00;;;;;;;1.23;0.65;;;;;;;14.78;100.00;100148.50;5015492;28;20021;-81
2023/11/14 10:47:41;;;;;;;33.75;3.05;;;;;;;15.13;100.00;100210.28;5033578;28;20034;-80
2023/11/14 10:50:27;;;;;;;1.52;1.42;;;;;;;14.46;100.00;100120.09;5033760;28;20126;-80
2023/11/14 10:53:13;;;;;;;2.45;1.58;;;;;;;15.08;100.00;100191.03;5037562;28;20041;-80
2023/11/14 10:55:40;;;;;;;2.90;2.45;;;;;;;14.95;100.00;100170.13;5030812;28;20499;-80
2023/11/14 10:58:07;;;;;;;2.15;1.95;;;;;;;14.77;100.00;100099.19;5046021;28;20037;-80
2023/11/14 11:00:34;;;;;;;1.27;1.10;;;;;;;15.39;100.00;100160.31;5035427;28;20097;-79
2023/11/14 11:03:00;;;;;;;1.67;1.23;;;;;;;15.16;100.00;100146.78;5030688;28;20025;-81
2023/11/14 11:05:31;;;;;;;1.80;1.35;;;;;;;15.06;100.00;100139.97;5017604;28;20060;-81
2023/11/14 11:18:03;;;;;;;0.35;0.35;;;;;;;15.22;100.00;100188.94;5048853;28;20488;-82
2023/11/14 11:20:31;;;;;;;2.22;2.03;;;;;;;15.41;100.00;100178.78;5039880;28;20037;-81
2023/11/14 11:23:14;;;;;;;0.88;0.45;;;;;;;15.42;100.00;100162.00;5032456;28;20061;-80
2023/11/14 11:25:43;;;;;;;0.70;0.70;;;;;;;15.60;100.00;100185.38;5034378;28;20425;-81
2023/11/14 11:28:21;;;;;;;2.28;1.10;;;;;;;15.65;100.00;100165.88;5029267;28;20042;-82
2023/11/14 11:31:04;;;;;;;4.75;3.03;;;;;;;15.79;100.00;100145.28;5006748;28;20069;-81
2023/11/14 11:33:50;;;;;;;2.05;1.85;;;;;;;15.95;100.00;100146.59;5043700;28;20076;-81
2023/11/14 11:36:32;;;;;;;1.25;0.95;;;;;;;15.94;100.00;100155.44;5037662;28;20063;-81
2023/11/14 11:39:05;;;;;;;1.00;0.98;;;;;;;15.51;100.00;100071.88;5014966;28;20037;-81
2023/11/14 11:41:53;;;;;;;2.17;1.73;;;;;;;15.94;100.00;100150.13;5005754;28;20042;-80
2023/11/14 11:44:19;;;;;;;0.77;0.77;;;;;;;15.93;100.00;100142.28;5013180;28;20042;-80
2023/11/14 11:46:46;;;;;;;0.75;0.65;;;;;;;15.96;100.00;100168.63;5009693;28;20065;-81
2023/11/14 11:49:14;;;;;;;2.53;1.60;;;;;;;16.02;100.00;100177.28;5007667;28;20025;-80
2023/11/14 11:51:46;;;;;;;2.10;1.25;;;;;;;16.00;100.00;100155.28;5025884;28;20042;-81
2023/11/14 11:54:27;;;;;;;4.67;1.87;;;;;;;16.17;100.00;100165.41;5025577;28;20022;-82
2023/11/14 11:57:14;;;;;;;0.88;0.73;;;;;;;15.91;100.00;100130.84;5009403;28;20436;-82
2023/11/14 11:59:40;;;;;;;2.28;2.08;;;;;;;16.13;100.00;100166.44;5008501;28;20038;-81
2023/11/14 12:02:19;;;;;;;2.67;1.75;;;;;;;15.79;100.00;100113.53;4996908;28;20084;-81
2023/11/14 12:04:47;;;;;;;3.92;1.85;;;;;;;15.30;100.00;100046.84;5009500;28;20486;-80
2023/11/14 12:07:13;;;;;;;3.70;3.38;;;;;;;15.45;100.00;100044.72;5009453;28;21046;-81
2023/11/14 12:09:39;;;;;;;2.80;1.73;;;;;;;15.95;100.00;100101.63;5015050;28;20425;-80
2023/11/14 12:12:05;;;;;;;1.58;1.48;;;;;;;15.66;100.00;100044.16;5009532;28;20029;-80
2023/11/14 12:14:31;;;;;;;0.75;0.57;;;;;;;16.23;100.00;100109.66;5018942;28;20013;-81
2023/11/14 12:16:58;;;;;;;6.13;2.50;;;;;;;16.33;100.00;100114.69;5020558;28;20382;-81
2023/11/14 12:19:55;;;;;;;1.58;1.48;;;;;;;15.86;100.00;100041.00;4999002;28;20029;-81
2023/11/14 12:22:49;;;;;;;2.85;2.63;;;;;;;16.08;100.00;100041.25;5015793;28;20050;-84
2023/11/14 12:25:29;;;;;;;0.77;0.57;;;;;;;16.55;100.00;100117.59;4995670;28;20041;-85
2023/11/14 12:28:02;;;;;;;3.35;3.15;;;;;;;16.49;100.00;100093.94;5010756;28;20112;-82
2023/11/14 12:31:08;;;;;;;7.07;2.83;;;;;;;16.62;100.00;100106.78;4994107;28;20041;-84
2023/11/14 12:33:57;;;;;;;2.50;1.00;;;;;;;16.49;100.00;100101.91;5012209;28;20038;-82
2023/11/14 12:36:34;;;;;;;0.75;0.75;;;;;;;16.70;100.00;100103.91;4994088;28;20470;-84
2023/11/14 12:39:19;;;;;;;0.40;0.40;;;;;;;16.62;100.00;100096.19;5038311;28;20032;-84
2023/11/14 12:41:46;;;;;;;1.85;1.23;;;;;;;16.51;100.00;100085.03;5019564;28;20052;-84
2023/11/14 12:44:35;;;;;;;0.82;0.75;;;;;;;16.51;100.00;100110.66;5011621;28;20041;-83
2023/11/14 12:47:17;;;;;;;0.85;0.73;;;;;;;16.41;100.00;100123.28;5025796;28;20076;-85